22:00
Airports
History
Links
Donate
Help keep this website running!
PayPal
Bitcoin
This page is community maintained. The information is intended for PC simulator navigation or reference.
Always use approved charts for navigation.
EDKO
Brilon Hochsauerland
Brilon Hochsauerland (EDKO)
Brilon, Nordrhein-Westfalen, Germany (59929)
(C)
Lat/Lng:51° 24' 19.75" N / 8° 39' 0.01" E
51.405487 / 8.650003
Elevation:460'ft / 140mMSL
ID / ICAO:EDKO
Runways:1
Longest:07-25
Asphalt 756m / 2,482ft
Controlled:Yes
Nearby Weather21:50 GMT 2017-10-16
Nearby weather at EDLP, Paderborn Lippstadt located 14.5 nautical miles from EDKO
Altimeter: 30.18
Visibility: 6.2 statute miles
Wind: 5 knots (from 180°)
Temp: 19°c / 66°f
Humidity: 52.2%

METAR: EDLP 162150Z 18005KT 140V210 CAVOK 19/09 Q1022

(Powered by phpweather)
Nearby VORs <50NM
Nearby NDBs
Runway 07 / 25
Dimensions:756.4 x 15.2m 2482' x 50'ft
Surface:Asphalt
Runway 07 [A]Runway 25 [B]
Heading:068°TH 248°TH
Lat:
Lng:
51° 24' 15.4"N
8° 38' 41.83"E
51° 24' 24.11"N
8° 39' 18.19"E
User Notes and Comments
51° 24' 19.75" N / 8° 39' 0.01" E
Distance To
Airport ID:
Nearby Airports
(C) Paderborn Lippstadt 14.5 NM
EDLP ( WX ) N 354°
(U) Meschede Schueren 19.1 NM
EDKM WSW 248°
(C) Soest Bad Sassendorf 22.5 NM
EDLZ NW 304°
(U) ALLENDORF EDER 25.6 NM
EDFQ S 177°
(C) Kassel Calden 31.3 NM
EDVK ( WX ) E 89°
(U) ARNSBERG MENDEN 32.7 NM
EDLA W 279°
(C) FRITZLAR 34.1 NM
ETHF ( WX ) SE 126°
VFR Chart
Flight Planning at SkyVector.com